createdAt,value
2018-09-12T00:00:59.704Z,19.64
2018-09-12T00:01:59.437Z,19.62
2018-09-12T00:02:59.362Z,19.64
2018-09-12T00:03:59.355Z,19.64
2018-09-12T00:04:59.359Z,19.64
2018-09-12T00:05:59.394Z,19.63
2018-09-12T00:06:59.648Z,19.59
2018-09-12T00:07:59.180Z,19.58
2018-09-12T00:08:59.352Z,19.57
2018-09-12T00:09:59.450Z,19.56
2018-09-12T00:10:59.390Z,19.54
2018-09-12T00:11:59.399Z,19.51
2018-09-12T00:12:59.350Z,19.46
2018-09-12T00:13:59.409Z,19.44
2018-09-12T00:14:59.451Z,19.43
2018-09-12T00:15:59.404Z,19.44
2018-09-12T00:16:59.411Z,19.43
2018-09-12T00:17:59.516Z,19.41
2018-09-12T00:18:59.574Z,19.41
2018-09-12T00:19:59.371Z,19.38
2018-09-12T00:20:59.749Z,19.38
2018-09-12T00:21:59.457Z,19.37
2018-09-12T00:22:59.674Z,19.36
2018-09-12T00:23:59.994Z,19.31
2018-09-12T00:24:59.444Z,19.29
2018-09-12T00:25:59.722Z,19.25
2018-09-12T00:26:59.751Z,19.25
2018-09-12T00:27:59.712Z,19.24
2018-09-12T00:28:59.541Z,19.21
2018-09-12T00:29:59.618Z,19.2
2018-09-12T00:30:59.424Z,19.18
2018-09-12T00:31:59.742Z,19.17
2018-09-12T00:32:59.595Z,19.16
2018-09-12T00:33:59.459Z,19.14
2018-09-12T00:34:59.711Z,19.16
2018-09-12T00:35:59.466Z,19.14
2018-09-12T00:36:59.454Z,19.17
2018-09-12T00:37:59.704Z,19.16
2018-09-12T00:38:59.575Z,19.12
2018-09-12T00:39:59.417Z,19.1
2018-09-12T00:40:59.435Z,19.08
2018-09-12T00:41:59.393Z,19.07
2018-09-12T00:42:59.435Z,19.06
2018-09-12T00:43:59.468Z,19.05
2018-09-12T00:44:59.435Z,19.03
2018-09-12T00:45:59.368Z,19.02
2018-09-12T00:46:59.478Z,19.02
2018-09-12T00:47:59.750Z,19.03
2018-09-12T00:48:59.449Z,19
2018-09-12T00:49:59.427Z,19.01
2018-09-12T00:50:59.576Z,19
2018-09-12T00:51:59.534Z,19.01
2018-09-12T00:52:59.414Z,19.01
2018-09-12T00:53:59.590Z,19.01
2018-09-12T00:54:59.479Z,19.01
2018-09-12T00:55:59.405Z,19.01
2018-09-12T00:56:59.417Z,18.96
2018-09-12T00:57:59.396Z,18.97
2018-09-12T00:58:59.430Z,18.98
2018-09-12T00:59:59.515Z,18.97
2018-09-12T01:00:59.561Z,18.94
2018-09-12T01:01:59.437Z,18.94
2018-09-12T01:02:59.610Z,18.91
2018-09-12T01:03:59.482Z,18.91
2018-09-12T01:04:59.506Z,18.88
2018-09-12T01:05:59.615Z,18.86
2018-09-12T01:06:59.483Z,18.85
2018-09-12T01:07:59.557Z,18.83
2018-09-12T01:08:59.466Z,18.82
2018-09-12T01:09:59.426Z,18.81
2018-09-12T01:10:59.501Z,18.82
2018-09-12T01:11:59.737Z,18.82
2018-09-12T01:12:59.391Z,18.81
2018-09-12T01:13:59.463Z,18.79
2018-09-12T01:14:59.541Z,18.75
2018-09-12T01:15:59.445Z,18.73
2018-09-12T01:16:59.603Z,18.72
2018-09-12T01:17:59.458Z,18.69
2018-09-12T01:18:59.248Z,18.67
2018-09-12T01:19:59.602Z,18.67
2018-09-12T01:20:59.377Z,18.63
2018-09-12T01:21:59.489Z,18.64
2018-09-12T01:22:59.481Z,18.63
2018-09-12T01:23:59.490Z,18.62
2018-09-12T01:24:59.470Z,18.61
2018-09-12T01:25:59.430Z,18.61
2018-09-12T01:26:59.503Z,18.61
2018-09-12T01:27:59.428Z,18.6
2018-09-12T01:28:59.422Z,18.57
2018-09-12T01:29:59.454Z,18.56
2018-09-12T01:30:59.483Z,18.53
2018-09-12T01:31:59.434Z,18.56
2018-09-12T01:32:59.752Z,18.55
2018-09-12T01:33:59.408Z,18.55
2018-09-12T01:34:59.492Z,18.56
2018-09-12T01:35:59.677Z,18.57
2018-09-12T01:36:59.489Z,18.57
2018-09-12T01:37:59.599Z,18.55
2018-09-12T01:38:59.457Z,18.54
2018-09-12T01:39:59.423Z,18.54
2018-09-12T01:40:59.662Z,18.51
2018-09-12T01:41:59.437Z,18.53
2018-09-12T01:42:59.799Z,18.55
2018-09-12T01:43:59.386Z,18.56
2018-09-12T01:44:59.505Z,18.55
2018-09-12T01:45:59.477Z,18.56
2018-09-12T01:46:59.845Z,18.53
2018-09-12T01:47:59.537Z,18.55
2018-09-12T01:48:59.736Z,18.52
2018-09-12T01:49:59.662Z,18.52
2018-09-12T01:50:59.725Z,18.52
2018-09-12T01:51:59.535Z,18.48
2018-09-12T01:52:59.783Z,18.51
2018-09-12T01:53:59.585Z,18.5
2018-09-12T01:54:59.602Z,18.48
2018-09-12T01:55:59.496Z,18.48
2018-09-12T01:56:59.467Z,18.48
2018-09-12T01:57:59.701Z,18.5
2018-09-12T01:58:59.508Z,18.46
2018-09-12T01:59:59.448Z,18.46
2018-09-12T02:00:59.497Z,18.46
2018-09-12T02:01:59.519Z,18.44
2018-09-12T02:02:59.536Z,18.46
2018-09-12T02:03:59.381Z,18.46
2018-09-12T02:04:59.298Z,18.46
2018-09-12T02:05:59.483Z,18.46
2018-09-12T02:06:59.466Z,18.43
2018-09-12T02:07:59.528Z,18.45
2018-09-12T02:08:59.800Z,18.44
2018-09-12T02:09:59.452Z,18.42
2018-09-12T02:10:59.487Z,18.42
2018-09-12T02:11:59.467Z,18.44
2018-09-12T02:12:59.484Z,18.42
2018-09-12T02:13:59.464Z,18.4
2018-09-12T02:14:59.455Z,18.41
2018-09-12T02:15:59.475Z,18.4
2018-09-12T02:16:59.531Z,18.4
2018-09-12T02:17:59.441Z,18.38
2018-09-12T02:18:59.581Z,18.38
2018-09-12T02:19:59.610Z,18.37
2018-09-12T02:20:59.594Z,18.32
2018-09-12T02:21:59.777Z,18.33
2018-09-12T02:22:59.653Z,18.29
2018-09-12T02:23:59.672Z,18.3
2018-09-12T02:24:59.607Z,18.3
2018-09-12T02:25:59.573Z,18.26
2018-09-12T02:26:59.571Z,18.24
2018-09-12T02:27:59.539Z,18.21
2018-09-12T02:28:59.816Z,18.2
2018-09-12T02:29:59.513Z,18.2
2018-09-12T02:30:59.439Z,18.2
2018-09-12T02:31:59.663Z,18.17
2018-09-12T02:32:59.542Z,18.18
2018-09-12T02:33:59.832Z,18.18
2018-09-12T02:34:59.497Z,18.17
2018-09-12T02:35:59.472Z,18.16
2018-09-12T02:36:59.677Z,18.14
2018-09-12T02:37:59.588Z,18.08
2018-09-12T02:38:59.885Z,18.08
2018-09-12T02:39:59.380Z,18.08
2018-09-12T02:40:59.537Z,18.06
2018-09-12T02:41:59.457Z,18.04
2018-09-12T02:42:59.945Z,18.02
2018-09-12T02:43:59.533Z,17.99
2018-09-12T02:44:59.549Z,17.99
2018-09-12T02:45:59.872Z,17.98
2018-09-12T02:46:59.514Z,17.98
2018-09-12T02:47:59.637Z,17.96
2018-09-12T02:48:59.556Z,17.92
2018-09-12T02:49:59.472Z,17.92
2018-09-12T02:50:59.648Z,17.9
2018-09-12T02:51:59.654Z,17.9
2018-09-12T02:52:59.490Z,17.85
2018-09-12T02:53:59.495Z,17.84
2018-09-12T02:54:59.548Z,17.83
2018-09-12T02:55:59.523Z,17.84
2018-09-12T02:56:59.577Z,17.81
2018-09-12T02:57:59.627Z,17.79
2018-09-12T02:58:59.545Z,17.76
2018-09-12T02:59:59.653Z,17.76
2018-09-12T03:00:59.754Z,17.78
2018-09-12T03:01:59.540Z,17.74
2018-09-12T03:02:59.546Z,17.73
2018-09-12T03:03:59.974Z,17.73
2018-09-12T03:04:59.745Z,17.72
2018-09-12T03:05:59.669Z,17.73
2018-09-12T03:06:59.485Z,17.69
2018-09-12T03:08:00.753Z,17.69
2018-09-12T03:08:59.479Z,17.69
2018-09-12T03:09:59.522Z,17.67
2018-09-12T03:10:59.804Z,17.66
2018-09-12T03:11:59.563Z,17.65
2018-09-12T03:12:59.507Z,17.62
2018-09-12T03:13:59.471Z,17.63
2018-09-12T03:14:59.521Z,17.61
2018-09-12T03:15:59.612Z,17.61
2018-09-12T03:16:59.528Z,17.61
2018-09-12T03:17:59.510Z,17.59
2018-09-12T03:19:00.208Z,17.6
2018-09-12T03:19:59.665Z,17.58
2018-09-12T03:21:02.247Z,17.55
2018-09-12T03:21:59.845Z,17.54
2018-09-12T03:22:59.516Z,17.53
2018-09-12T03:23:59.598Z,17.54
2018-09-12T03:24:59.509Z,17.51
2018-09-12T03:25:59.499Z,17.53
2018-09-12T03:26:59.518Z,17.48
2018-09-12T03:27:59.643Z,17.48
2018-09-12T03:28:59.560Z,17.46
2018-09-12T03:29:59.927Z,17.43
2018-09-12T03:30:59.573Z,17.42
2018-09-12T03:31:59.654Z,17.43
2018-09-12T03:32:59.612Z,17.41
2018-09-12T03:33:59.619Z,17.39
2018-09-12T03:34:59.730Z,17.39
2018-09-12T03:35:59.892Z,17.39
2018-09-12T03:36:59.496Z,17.36
2018-09-12T03:37:59.617Z,17.36
2018-09-12T03:38:59.500Z,17.36
2018-09-12T03:39:59.757Z,17.38
2018-09-12T03:40:59.696Z,17.36
2018-09-12T03:41:59.487Z,17.36
2018-09-12T03:42:59.487Z,17.36
2018-09-12T03:43:59.451Z,17.34
2018-09-12T03:44:59.704Z,17.33
2018-09-12T03:45:59.589Z,17.34
2018-09-12T03:46:59.541Z,17.32
2018-09-12T03:48:00.739Z,17.3
2018-09-12T03:48:59.414Z,17.3
2018-09-12T03:49:59.505Z,17.31
2018-09-12T03:50:59.542Z,17.28
2018-09-12T03:51:59.989Z,17.3
2018-09-12T03:52:59.820Z,17.26
2018-09-12T03:53:59.608Z,17.23
2018-09-12T03:54:59.632Z,17.22
2018-09-12T03:55:59.513Z,17.22
2018-09-12T03:56:59.533Z,17.21
2018-09-12T03:57:59.530Z,17.21
2018-09-12T03:58:59.751Z,17.21
2018-09-12T03:59:59.568Z,17.22
2018-09-12T04:00:59.517Z,17.2
2018-09-12T04:01:59.580Z,17.19
2018-09-12T04:02:59.582Z,17.2
2018-09-12T04:03:59.898Z,17.19
2018-09-12T04:04:59.871Z,17.17
2018-09-12T04:05:59.589Z,17.14
2018-09-12T04:06:59.577Z,17.13
2018-09-12T04:07:59.682Z,17.15
2018-09-12T04:08:59.567Z,17.13
2018-09-12T04:09:59.588Z,17.12
2018-09-12T04:10:59.503Z,17.11
2018-09-12T04:11:59.537Z,17.09
2018-09-12T04:12:59.549Z,17.07
2018-09-12T04:13:59.615Z,17.08
2018-09-12T04:14:59.610Z,17.09
2018-09-12T04:15:59.527Z,17.06
2018-09-12T04:17:03.066Z,17.06
2018-09-12T04:17:59.549Z,17.08
2018-09-12T04:18:59.576Z,17.04
2018-09-12T04:19:59.614Z,17.06
2018-09-12T04:20:59.523Z,17.04
2018-09-12T04:21:59.601Z,17.01
2018-09-12T04:22:59.589Z,17.01
2018-09-12T04:23:59.614Z,16.96
2018-09-12T04:24:59.880Z,16.99
2018-09-12T04:25:59.643Z,16.95
2018-09-12T04:26:59.767Z,16.98
2018-09-12T04:27:59.622Z,16.95
2018-09-12T04:28:59.735Z,16.94
2018-09-12T04:29:59.630Z,16.94
2018-09-12T04:30:59.824Z,16.91
2018-09-12T04:31:59.601Z,16.9
2018-09-12T04:32:59.923Z,16.89
2018-09-12T04:33:59.587Z,16.88
2018-09-12T04:34:59.901Z,16.88
2018-09-12T04:35:59.621Z,16.85
2018-09-12T04:36:59.827Z,16.87
2018-09-12T04:37:59.531Z,16.87
2018-09-12T04:38:59.922Z,16.84
2018-09-12T04:39:59.934Z,16.83
2018-09-12T04:40:59.643Z,16.84
2018-09-12T04:42:00.571Z,16.83
2018-09-12T04:42:59.592Z,16.81
2018-09-12T04:43:59.765Z,16.79
2018-09-12T04:44:59.637Z,16.82
2018-09-12T04:45:59.911Z,16.8
2018-09-12T04:46:59.816Z,16.8
2018-09-12T04:47:59.608Z,16.8
2018-09-12T04:48:59.625Z,16.77
2018-09-12T04:49:59.648Z,16.78
2018-09-12T04:50:59.731Z,16.77
2018-09-12T04:51:59.699Z,16.77
2018-09-12T04:52:59.567Z,16.76
2018-09-12T04:53:59.899Z,16.77
2018-09-12T04:54:59.958Z,16.77
2018-09-12T04:55:59.476Z,16.76
2018-09-12T04:56:59.568Z,16.73
2018-09-12T04:58:00.124Z,16.75
2018-09-12T04:58:59.724Z,16.71
2018-09-12T04:59:59.606Z,16.72
2018-09-12T05:00:59.653Z,16.71
2018-09-12T05:02:00.167Z,16.69
2018-09-12T05:02:59.628Z,16.7
2018-09-12T05:03:59.615Z,16.69
2018-09-12T05:04:59.656Z,16.68
2018-09-12T05:05:59.668Z,16.7
2018-09-12T05:06:59.622Z,16.68
2018-09-12T05:07:59.551Z,16.7
2018-09-12T05:08:59.716Z,16.68
2018-09-12T05:09:59.843Z,16.66
2018-09-12T05:10:59.743Z,16.66
2018-09-12T05:11:59.637Z,16.65
2018-09-12T05:12:59.683Z,16.65
2018-09-12T05:13:59.588Z,16.63
2018-09-12T05:14:59.625Z,16.6
2018-09-12T05:16:00.520Z,16.58
2018-09-12T05:16:59.712Z,16.58
2018-09-12T05:17:59.582Z,16.57
2018-09-12T05:18:59.675Z,16.59
2018-09-12T05:19:59.725Z,16.57
2018-09-12T05:20:59.563Z,16.59
2018-09-12T05:21:59.618Z,16.59
2018-09-12T05:22:59.595Z,16.6
2018-09-12T05:23:59.623Z,16.6
2018-09-12T05:24:59.652Z,16.6
2018-09-12T05:25:59.894Z,16.59
2018-09-12T05:26:59.756Z,16.58
2018-09-12T05:27:59.829Z,16.56
2018-09-12T05:28:59.658Z,16.59
2018-09-12T05:29:59.986Z,16.59
2018-09-12T05:30:59.635Z,16.6
2018-09-12T05:31:59.881Z,16.6
2018-09-12T05:32:59.372Z,16.6
2018-09-12T05:33:59.656Z,16.6
2018-09-12T05:34:59.780Z,16.6
2018-09-12T05:35:59.822Z,16.63
2018-09-12T05:36:59.684Z,16.6
2018-09-12T05:37:59.611Z,16.63
2018-09-12T05:38:59.873Z,16.63
2018-09-12T05:39:59.598Z,16.58
2018-09-12T05:40:59.644Z,16.6
2018-09-12T05:41:59.688Z,16.61
2018-09-12T05:42:59.642Z,16.58
2018-09-12T05:43:59.604Z,16.59
2018-09-12T05:44:59.678Z,16.59
2018-09-12T05:45:59.878Z,16.59
2018-09-12T05:46:59.672Z,16.63
2018-09-12T05:47:59.629Z,16.61
2018-09-12T05:49:06.618Z,16.64
2018-09-12T05:50:00.983Z,16.63
2018-09-12T05:51:01.218Z,16.65
2018-09-12T05:51:59.710Z,16.66
2018-09-12T05:52:59.856Z,16.65
2018-09-12T05:53:59.652Z,16.65
2018-09-12T05:54:59.629Z,16.65
2018-09-12T05:55:59.903Z,16.67
2018-09-12T05:56:59.609Z,16.67
2018-09-12T05:57:59.914Z,16.67
2018-09-12T05:58:59.564Z,16.68
2018-09-12T05:59:59.603Z,16.68
2018-09-12T06:00:59.671Z,16.71
2018-09-12T06:01:59.863Z,16.71
2018-09-12T06:02:59.676Z,16.72
2018-09-12T06:03:59.651Z,16.71
2018-09-12T06:04:59.909Z,16.72
2018-09-12T06:05:59.770Z,16.73
2018-09-12T06:07:01.838Z,16.73
2018-09-12T06:07:59.710Z,16.74
2018-09-12T06:08:59.888Z,16.75
2018-09-12T06:09:59.780Z,16.77
2018-09-12T06:10:59.641Z,16.78
2018-09-12T06:11:59.823Z,16.79
2018-09-12T06:12:59.849Z,16.83
2018-09-12T06:14:00.077Z,16.83
2018-09-12T06:14:59.616Z,16.85
2018-09-12T06:15:59.698Z,16.88
2018-09-12T06:16:59.596Z,16.9
2018-09-12T06:17:59.660Z,16.9
2018-09-12T06:18:59.625Z,16.91
2018-09-12T06:19:59.697Z,16.94
2018-09-12T06:20:59.612Z,16.95
2018-09-12T06:21:59.888Z,16.95
2018-09-12T06:22:59.712Z,16.98
2018-09-12T06:23:59.793Z,17.02
2018-09-12T06:24:59.419Z,17.02
2018-09-12T06:25:59.916Z,17.05
2018-09-12T06:26:59.749Z,17.07
2018-09-12T06:27:59.788Z,17.12
2018-09-12T06:28:59.745Z,17.14
2018-09-12T06:30:00.327Z,17.15
2018-09-12T06:30:59.681Z,17.19
2018-09-12T06:31:59.616Z,17.21
2018-09-12T06:32:59.593Z,17.23
2018-09-12T06:33:59.766Z,17.28
2018-09-12T06:34:59.710Z,17.31
2018-09-12T06:35:59.639Z,17.33
2018-09-12T06:36:59.714Z,17.34
2018-09-12T06:37:59.627Z,17.38
2018-09-12T06:38:59.557Z,17.4
2018-09-12T06:39:59.740Z,17.43
2018-09-12T06:40:59.636Z,17.45
2018-09-12T06:41:59.754Z,17.47
2018-09-12T06:42:59.929Z,17.52
2018-09-12T06:43:59.686Z,17.54
2018-09-12T06:44:59.601Z,17.58
2018-09-12T06:45:59.663Z,17.61
2018-09-12T06:46:59.830Z,17.65
2018-09-12T06:48:00.672Z,17.68
2018-09-12T06:48:59.847Z,17.72
2018-09-12T06:49:59.748Z,17.75
2018-09-12T06:50:59.630Z,17.77
2018-09-12T06:51:59.735Z,17.8
2018-09-12T06:52:59.694Z,17.85
2018-09-12T06:53:59.670Z,17.87
2018-09-12T06:54:59.704Z,17.9
2018-09-12T06:55:59.627Z,17.92
2018-09-12T06:56:59.669Z,17.96
2018-09-12T06:57:59.624Z,17.99
2018-09-12T06:58:59.763Z,18.03
2018-09-12T06:59:59.741Z,18.04
2018-09-12T07:01:00.388Z,18.09
2018-09-12T07:01:59.738Z,18.11
2018-09-12T07:02:59.701Z,18.15
2018-09-12T07:03:59.750Z,18.19
2018-09-12T07:04:59.747Z,18.23
2018-09-12T07:05:59.756Z,18.3
2018-09-12T07:06:59.623Z,18.33
2018-09-12T07:07:59.888Z,18.38
2018-09-12T07:08:59.778Z,18.4
2018-09-12T07:09:59.737Z,18.45
2018-09-12T07:10:59.749Z,18.5
2018-09-12T07:11:59.887Z,18.54
2018-09-12T07:12:59.768Z,18.58
2018-09-12T07:14:00.003Z,18.62
2018-09-12T07:15:00.548Z,18.64
2018-09-12T07:16:00.149Z,18.69
2018-09-12T07:16:59.484Z,18.72
2018-09-12T07:17:59.826Z,18.77
2018-09-12T07:18:59.791Z,18.81
2018-09-12T07:20:00.073Z,18.84
2018-09-12T07:20:59.627Z,18.88
2018-09-12T07:21:59.889Z,18.92
2018-09-12T07:22:59.765Z,18.94
2018-09-12T07:23:59.945Z,18.98
2018-09-12T07:24:59.641Z,19.01
2018-09-12T07:25:59.652Z,19.06
2018-09-12T07:26:59.793Z,19.09
2018-09-12T07:27:59.731Z,19.13
2018-09-12T07:28:59.715Z,19.15
2018-09-12T07:29:59.688Z,19.21
2018-09-12T07:30:59.661Z,19.22
2018-09-12T07:31:59.833Z,19.29
2018-09-12T07:32:59.812Z,19.27
2018-09-12T07:33:59.796Z,19.32
2018-09-12T07:34:59.823Z,19.34
2018-09-12T07:35:59.675Z,19.35
2018-09-12T07:36:59.853Z,19.4
2018-09-12T07:37:59.739Z,19.45
2018-09-12T07:38:59.726Z,19.47
2018-09-12T07:39:59.772Z,19.52
2018-09-12T07:40:59.972Z,19.54
2018-09-12T07:41:59.773Z,19.62
2018-09-12T07:43:00.146Z,19.65
2018-09-12T07:43:59.681Z,19.69
2018-09-12T07:44:59.771Z,19.73
2018-09-12T07:45:59.727Z,19.76
2018-09-12T07:47:00.180Z,19.79
2018-09-12T07:48:00.279Z,19.82
2018-09-12T07:49:00.194Z,19.85
2018-09-12T07:49:59.945Z,19.88
2018-09-12T07:50:59.757Z,19.9
2018-09-12T07:51:59.826Z,19.94
2018-09-12T07:52:59.641Z,19.98
2018-09-12T07:53:59.677Z,19.96
2018-09-12T07:54:59.824Z,20
2018-09-12T07:56:00.356Z,20.05
2018-09-12T07:57:00.332Z,20.09
2018-09-12T07:57:59.839Z,20.12
2018-09-12T07:58:59.891Z,20.18
2018-09-12T08:00:00.444Z,20.2
2018-09-12T08:00:59.910Z,20.24
2018-09-12T08:01:59.769Z,20.28
2018-09-12T08:02:59.924Z,20.33
2018-09-12T08:03:59.751Z,20.38
2018-09-12T08:05:00.493Z,20.37
2018-09-12T08:05:59.891Z,20.41
2018-09-12T08:06:59.808Z,20.47
2018-09-12T08:07:59.775Z,20.5
2018-09-12T08:08:59.920Z,20.54
2018-09-12T08:09:59.733Z,20.57
2018-09-12T08:10:59.698Z,20.62
2018-09-12T08:11:59.790Z,20.65
2018-09-12T08:12:59.742Z,20.66
2018-09-12T08:13:59.679Z,20.69
2018-09-12T08:14:59.759Z,20.74
2018-09-12T08:15:59.840Z,20.78
2018-09-12T08:17:00.465Z,20.81
2018-09-12T08:17:59.842Z,20.81
2018-09-12T08:19:00.486Z,20.87
2018-09-12T08:20:00.038Z,20.9
2018-09-12T08:20:59.682Z,20.92
2018-09-12T08:21:59.723Z,20.95
2018-09-12T08:23:00.222Z,20.98
2018-09-12T08:23:59.883Z,21.03
2018-09-12T08:24:59.786Z,21.04
2018-09-12T08:25:59.771Z,21.04
2018-09-12T08:26:59.814Z,21.05
2018-09-12T08:27:59.829Z,21.1
2018-09-12T08:28:59.793Z,21.13
2018-09-12T08:29:59.891Z,21.19
2018-09-12T08:30:59.752Z,21.16
2018-09-12T08:31:59.859Z,21.16
2018-09-12T08:32:59.721Z,21.16
2018-09-12T08:33:59.748Z,21.22
2018-09-12T08:34:59.824Z,21.26
2018-09-12T08:35:59.731Z,21.34
2018-09-12T08:37:00.043Z,21.36
2018-09-12T08:37:59.752Z,21.42
2018-09-12T08:38:59.740Z,21.48
2018-09-12T08:40:00.382Z,21.52
2018-09-12T08:41:00.455Z,21.59
2018-09-12T08:42:00.018Z,21.64
2018-09-12T08:42:59.821Z,21.66
2018-09-12T08:43:59.788Z,21.69
2018-09-12T08:44:59.976Z,21.74
2018-09-12T08:46:00.009Z,21.77
2018-09-12T08:47:00.092Z,21.8
2018-09-12T08:47:59.795Z,21.86
2018-09-12T08:48:59.831Z,21.91
2018-09-12T08:49:59.722Z,22.02
2018-09-12T08:50:59.847Z,22.05
2018-09-12T08:51:59.844Z,22.05
2018-09-12T08:53:00.522Z,22.11
2018-09-12T08:54:00.260Z,22.14
2018-09-12T08:54:59.915Z,22.18
2018-09-12T08:55:59.972Z,22.21
2018-09-12T08:56:59.927Z,22.26
2018-09-12T08:57:59.743Z,22.33
2018-09-12T08:58:59.706Z,22.37
2018-09-12T08:59:59.857Z,22.36
2018-09-12T09:00:59.784Z,22.4
2018-09-12T09:01:59.976Z,22.44
2018-09-12T09:02:59.821Z,22.5
2018-09-12T09:04:00.167Z,22.55
2018-09-12T09:04:59.796Z,22.53
2018-09-12T09:05:59.748Z,22.58
2018-09-12T09:06:59.768Z,22.61
2018-09-12T09:07:59.910Z,22.61
2018-09-12T09:08:59.867Z,22.62
2018-09-12T09:09:59.781Z,22.67
2018-09-12T09:10:59.573Z,22.72
2018-09-12T09:11:59.881Z,22.76
2018-09-12T09:12:59.826Z,22.77
2018-09-12T09:13:59.733Z,22.82
2018-09-12T09:14:59.793Z,22.81
2018-09-12T09:15:59.783Z,22.81
2018-09-12T09:16:59.971Z,22.8
2018-09-12T09:18:00.011Z,22.86
2018-09-12T09:18:59.810Z,22.89
2018-09-12T09:19:59.819Z,22.97
2018-09-12T09:20:59.992Z,23.03
2018-09-12T09:21:59.994Z,23.03
2018-09-12T09:22:59.825Z,23.09
2018-09-12T09:23:59.806Z,23.15
2018-09-12T09:24:59.785Z,23.18
2018-09-12T09:25:59.867Z,23.25
2018-09-12T09:26:59.729Z,23.31
2018-09-12T09:27:59.913Z,23.39
2018-09-12T09:29:00.259Z,23.43
2018-09-12T09:30:00.003Z,23.47
2018-09-12T09:30:59.851Z,23.47
2018-09-12T09:31:59.795Z,23.48
2018-09-12T09:32:59.822Z,23.53
2018-09-12T09:33:59.780Z,23.62
2018-09-12T09:35:01.620Z,23.68
2018-09-12T09:35:59.651Z,23.73
2018-09-12T09:36:59.863Z,23.8
2018-09-12T09:38:00.014Z,23.83
2018-09-12T09:38:59.866Z,23.9
2018-09-12T09:40:00.101Z,23.94
2018-09-12T09:40:59.843Z,23.99
2018-09-12T09:41:59.857Z,24.03
2018-09-12T09:42:59.776Z,24.07
2018-09-12T09:44:00.243Z,24.08
2018-09-12T09:44:59.866Z,24.15
2018-09-12T09:45:59.816Z,24.16
2018-09-12T09:46:59.809Z,24.2
2018-09-12T09:48:01.336Z,24.26
2018-09-12T09:48:59.804Z,24.28
2018-09-12T09:49:59.823Z,24.27
2018-09-12T09:50:59.867Z,24.3
2018-09-12T09:51:59.855Z,24.36
2018-09-12T09:52:59.707Z,24.42
2018-09-12T09:53:59.821Z,24.45
2018-09-12T09:55:00.210Z,24.45
2018-09-12T09:55:59.964Z,24.6
2018-09-12T09:56:59.769Z,24.6
2018-09-12T09:57:59.863Z,24.61
2018-09-12T09:58:59.850Z,24.69
2018-09-12T10:00:00.063Z,24.74
2018-09-12T10:00:59.872Z,24.72
2018-09-12T10:01:59.900Z,24.79
2018-09-12T10:02:59.883Z,24.85
2018-09-12T10:03:59.882Z,24.85
2018-09-12T10:04:59.861Z,24.92
2018-09-12T10:06:00.899Z,24.96
2018-09-12T10:06:59.864Z,24.97
2018-09-12T10:08:00.028Z,25.01
2018-09-12T10:08:59.905Z,25.07
2018-09-12T10:09:59.800Z,25.09
2018-09-12T10:10:59.943Z,25.17
2018-09-12T10:12:01.040Z,25.24
2018-09-12T10:12:59.838Z,25.26
2018-09-12T10:14:00.344Z,25.3
2018-09-12T10:14:59.847Z,25.37
2018-09-12T10:15:59.659Z,25.38
2018-09-12T10:17:00.295Z,25.42
2018-09-12T10:17:59.868Z,25.5
2018-09-12T10:18:59.825Z,25.53
2018-09-12T10:20:00.175Z,25.7
2018-09-12T10:20:59.816Z,25.72
2018-09-12T10:21:59.919Z,25.77
2018-09-12T10:22:59.989Z,25.81
2018-09-12T10:23:59.758Z,25.93
2018-09-12T10:25:00.212Z,25.99
2018-09-12T10:25:59.822Z,25.97
2018-09-12T10:26:59.915Z,26.03
2018-09-12T10:28:00.020Z,26.04
2018-09-12T10:28:59.894Z,26.14
2018-09-12T10:29:59.952Z,26.1
2018-09-12T10:30:59.787Z,26.14
2018-09-12T10:31:59.804Z,26.2
2018-09-12T10:32:59.849Z,26.21
2018-09-12T10:33:59.839Z,26.28
2018-09-12T10:34:59.911Z,26.3
2018-09-12T10:35:59.808Z,26.33
2018-09-12T10:36:59.882Z,26.37
2018-09-12T10:38:00.254Z,26.47
2018-09-12T10:39:00.272Z,26.53
2018-09-12T10:40:00.444Z,26.53
2018-09-12T10:41:00.364Z,26.58
2018-09-12T10:41:59.928Z,26.66
2018-09-12T10:42:59.851Z,26.7
2018-09-12T10:43:59.928Z,26.68
2018-09-12T10:44:59.895Z,26.71
2018-09-12T10:45:59.829Z,26.7
2018-09-12T10:46:59.790Z,26.71
2018-09-12T10:47:59.773Z,26.71
2018-09-12T10:48:59.811Z,26.76
2018-09-12T10:49:59.856Z,26.77
2018-09-12T10:50:59.828Z,26.81
2018-09-12T10:51:59.786Z,26.84
2018-09-12T10:52:59.866Z,26.9
2018-09-12T10:53:59.797Z,26.96
2018-09-12T10:54:59.929Z,27.09
2018-09-12T10:55:59.970Z,27.2
2018-09-12T10:56:59.870Z,27.21
2018-09-12T10:57:59.822Z,27.22
2018-09-12T10:59:00.386Z,27.22
2018-09-12T10:59:59.823Z,27.22
2018-09-12T11:00:59.749Z,27.21
2018-09-12T11:01:59.981Z,27.21
2018-09-12T11:02:59.860Z,27.28
2018-09-12T11:04:00.055Z,27.33
2018-09-12T11:04:59.994Z,27.42
2018-09-12T11:06:00.010Z,27.42
2018-09-12T11:07:00.018Z,27.49
2018-09-12T11:07:59.924Z,27.53
2018-09-12T11:08:59.980Z,27.52
2018-09-12T11:10:00.089Z,27.52
2018-09-12T11:10:59.829Z,27.53
2018-09-12T11:11:59.974Z,27.65
2018-09-12T11:12:59.945Z,27.72
2018-09-12T11:13:59.950Z,27.71
2018-09-12T11:14:59.947Z,27.76
2018-09-12T11:15:59.947Z,27.83
2018-09-12T11:16:59.964Z,27.78
2018-09-12T11:17:59.884Z,27.78
2018-09-12T11:19:00.283Z,27.83
2018-09-12T11:20:00.101Z,27.86
2018-09-12T11:21:00.012Z,27.89
2018-09-12T11:22:00.415Z,27.9
2018-09-12T11:23:00.625Z,27.91
2018-09-12T11:24:00.592Z,27.98
2018-09-12T11:24:59.842Z,28.03
2018-09-12T11:26:00.968Z,28.06
2018-09-12T11:27:00.047Z,28.13
2018-09-12T11:28:00.159Z,28.13
2018-09-12T11:28:59.961Z,28.13
2018-09-12T11:30:00.116Z,28.18
2018-09-12T11:30:59.862Z,28.2
2018-09-12T11:31:59.990Z,28.2
2018-09-12T11:32:59.807Z,28.23
2018-09-12T11:33:59.882Z,28.26
2018-09-12T11:34:59.877Z,28.28
2018-09-12T11:36:00.088Z,28.34
2018-09-12T11:37:00.110Z,28.38
2018-09-12T11:38:00.023Z,28.41
2018-09-12T11:38:59.942Z,28.44
2018-09-12T11:40:00.401Z,28.41
2018-09-12T11:40:59.753Z,28.42
2018-09-12T11:42:00.255Z,28.42
2018-09-12T11:42:59.843Z,28.44
2018-09-12T11:44:00.292Z,28.48
2018-09-12T11:45:00.391Z,28.52
2018-09-12T11:45:59.955Z,28.56
2018-09-12T11:46:59.983Z,28.55
2018-09-12T11:47:59.904Z,28.59
2018-09-12T11:49:00.485Z,28.6
2018-09-12T11:50:00.445Z,28.67
2018-09-12T11:51:00.235Z,28.68
2018-09-12T11:52:00.140Z,28.68
2018-09-12T11:52:59.992Z,28.76
2018-09-12T11:54:00.022Z,28.76
2018-09-12T11:54:59.938Z,28.79
2018-09-12T11:55:59.888Z,28.76
2018-09-12T11:57:00.019Z,28.76
2018-09-12T11:58:00.049Z,28.8
2018-09-12T11:58:59.864Z,28.82
2018-09-12T12:00:00.174Z,28.86
2018-09-12T12:01:00.104Z,28.87
2018-09-12T12:02:00.191Z,28.88
2018-09-12T12:02:59.893Z,28.93
2018-09-12T12:03:59.922Z,29.07
2018-09-12T12:05:00.516Z,29.11
2018-09-12T12:06:00.316Z,29.13
2018-09-12T12:06:59.916Z,29.19
2018-09-12T12:08:00.022Z,29.25
2018-09-12T12:08:59.870Z,29.23
2018-09-12T12:10:00.030Z,29.35
2018-09-12T12:11:00.182Z,29.28
2018-09-12T12:11:59.917Z,29.24
2018-09-12T12:13:00.093Z,29.23
2018-09-12T12:14:00.047Z,29.21
2018-09-12T12:15:00.060Z,29.21
2018-09-12T12:15:59.982Z,29.24
2018-09-12T12:16:59.767Z,29.28
2018-09-12T12:17:59.905Z,29.26
2018-09-12T12:18:59.961Z,29.23
2018-09-12T12:19:59.925Z,29.23
2018-09-12T12:20:59.840Z,29.28
2018-09-12T12:22:00.144Z,29.22
2018-09-12T12:23:00.546Z,29.24
2018-09-12T12:24:00.971Z,29.23
2018-09-12T12:24:59.953Z,29.27
2018-09-12T12:25:59.933Z,29.29
2018-09-12T12:26:59.968Z,29.24
2018-09-12T12:28:00.156Z,29.23
2018-09-12T12:28:59.978Z,29.25
2018-09-12T12:30:00.046Z,29.26
2018-09-12T12:31:00.282Z,29.29
2018-09-12T12:31:59.890Z,29.35
2018-09-12T12:33:00.121Z,29.35
2018-09-12T12:33:59.921Z,29.37
2018-09-12T12:34:59.993Z,29.35
2018-09-12T12:35:59.896Z,29.36
2018-09-12T12:36:59.992Z,29.36
2018-09-12T12:38:00.148Z,29.43
2018-09-12T12:39:00.021Z,29.38
2018-09-12T12:40:00.032Z,29.38
2018-09-12T12:41:00.177Z,29.4
2018-09-12T12:42:00.356Z,29.51
2018-09-12T12:42:59.904Z,29.51
2018-09-12T12:43:59.888Z,29.49
2018-09-12T12:45:00.220Z,29.54
2018-09-12T12:46:00.376Z,29.54
2018-09-12T12:46:59.887Z,29.57
2018-09-12T12:47:59.875Z,29.62
2018-09-12T12:48:59.904Z,29.57
2018-09-12T12:50:00.391Z,29.63
2018-09-12T12:50:59.912Z,29.61
2018-09-12T12:52:00.037Z,29.63
2018-09-12T12:52:59.866Z,29.56
2018-09-12T12:54:00.334Z,29.63
2018-09-12T12:55:00.043Z,29.66
2018-09-12T12:55:59.974Z,29.66